createdAt,value
2022-10-19T00:00:20.068Z,100828.86
2022-10-19T00:03:28.388Z,100827.35
2022-10-19T00:06:22.394Z,100825.22
2022-10-19T00:08:55.616Z,100826.60
2022-10-19T00:12:02.919Z,100821.27
2022-10-19T00:14:33.021Z,100816.92
2022-10-19T00:17:13.621Z,100816.59
2022-10-19T00:20:25.401Z,100819.23
2022-10-19T00:23:21.610Z,100816.20
2022-10-19T00:26:12.231Z,100815.34
2022-10-19T00:28:57.976Z,100820.14
2022-10-19T00:32:01.170Z,100820.46
2022-10-19T00:34:42.841Z,100819.11
2022-10-19T00:37:41.608Z,100819.23
2022-10-19T00:40:22.751Z,100825.28
2022-10-19T00:43:31.280Z,100822.29
2022-10-19T00:46:23.191Z,100821.25
2022-10-19T00:49:11.072Z,100820.53
2022-10-19T00:52:08.545Z,100817.52
2022-10-19T00:55:20.688Z,100815.31
2022-10-19T00:58:03.381Z,100815.83
2022-10-19T01:00:59.528Z,100819.69
2022-10-19T01:03:32.695Z,100820.36
2022-10-19T01:06:22.166Z,100820.05
2022-10-19T01:09:06.770Z,100818.63
2022-10-19T01:11:53.386Z,100817.20
2022-10-19T01:15:30.475Z,100808.89
2022-10-19T01:18:29.155Z,100804.71
2022-10-19T01:21:56.853Z,100805.01
2022-10-19T01:28:17.602Z,100800.46
2022-10-19T01:31:50.234Z,100796.69
2022-10-19T01:35:16.806Z,100795.52
2022-10-19T01:38:02.586Z,100786.14
2022-10-19T01:41:10.192Z,100783.16
2022-10-19T01:44:13.614Z,100780.64
2022-10-19T01:46:48.046Z,100780.29
2022-10-19T01:49:52.912Z,100777.48
2022-10-19T01:52:24.440Z,100776.36
2022-10-19T01:55:14.755Z,100776.59
2022-10-19T01:57:55.893Z,100771.33
2022-10-19T02:00:47.580Z,100768.89
2022-10-19T02:03:26.437Z,100766.36
2022-10-19T02:05:58.992Z,100764.00
2022-10-19T02:09:17.601Z,100764.11
2022-10-19T02:12:09.545Z,100761.98
2022-10-19T02:15:08.047Z,100761.75
2022-10-19T02:17:43.332Z,100758.72
2022-10-19T02:20:35.857Z,100759.20
2022-10-19T02:23:14.581Z,100755.98
2022-10-19T02:25:49.096Z,100755.65
2022-10-19T02:28:40.536Z,100756.19
2022-10-19T02:31:23.525Z,100753.27
2022-10-19T02:33:53.736Z,100750.60
2022-10-19T02:36:23.339Z,100749.69
2022-10-19T02:39:16.201Z,100752.02
2022-10-19T02:42:28.427Z,100745.29
2022-10-19T02:45:06.315Z,100740.10
2022-10-19T02:47:49.550Z,100743.84
2022-10-19T02:50:32.031Z,100749.44
2022-10-19T02:53:16.569Z,100747.34
2022-10-19T02:56:01.039Z,100748.36
2022-10-19T02:58:44.597Z,100746.16
2022-10-19T03:01:29.640Z,100747.88
2022-10-19T03:04:21.549Z,100742.45
2022-10-19T03:07:11.014Z,100740.35
2022-10-19T03:09:57.666Z,100738.92
2022-10-19T03:12:39.011Z,100742.11
2022-10-19T03:15:29.489Z,100736.92
2022-10-19T03:18:12.303Z,100734.71
2022-10-19T03:21:19.655Z,100727.06
2022-10-19T03:24:04.863Z,100729.25
2022-10-19T03:26:47.553Z,100729.42
2022-10-19T03:29:49.738Z,100734.56
2022-10-19T03:32:44.566Z,100732.61
2022-10-19T03:35:19.901Z,100724.77
2022-10-19T03:37:57.905Z,100726.90
2022-10-19T03:40:35.067Z,100730.00
2022-10-19T03:43:47.889Z,100727.30
2022-10-19T03:46:39.097Z,100723.20
2022-10-19T03:49:14.295Z,100722.62
2022-10-19T03:52:14.555Z,100726.30
2022-10-19T03:55:29.853Z,100725.91
2022-10-19T03:58:13.613Z,100724.44
2022-10-19T04:00:58.017Z,100721.94
2022-10-19T04:03:27.698Z,100722.50
2022-10-19T04:06:22.118Z,100723.38
2022-10-19T04:09:04.039Z,100722.11
2022-10-19T04:11:41.229Z,100721.25
2022-10-19T04:14:32.384Z,100723.78
2022-10-19T04:17:11.771Z,100719.08
2022-10-19T04:20:15.118Z,100714.20
2022-10-19T04:22:53.876Z,100714.23
2022-10-19T04:25:25.700Z,100711.20
2022-10-19T04:28:09.345Z,100714.04
2022-10-19T04:30:54.871Z,100708.08
2022-10-19T04:34:03.084Z,100707.59
2022-10-19T04:36:54.057Z,100706.18
2022-10-19T04:39:47.241Z,100701.55
2022-10-19T04:42:22.792Z,100701.63
2022-10-19T04:45:27.615Z,100703.30
2022-10-19T04:48:03.054Z,100702.27
2022-10-19T04:50:48.696Z,100701.19
2022-10-19T04:53:26.704Z,100699.55
2022-10-19T04:56:21.443Z,100693.42
2022-10-19T04:59:11.730Z,100692.10
2022-10-19T05:01:49.595Z,100686.86
2022-10-19T05:04:27.418Z,100683.46
2022-10-19T05:07:01.032Z,100682.60
2022-10-19T05:09:58.847Z,100685.45
2022-10-19T05:12:51.594Z,100682.16
2022-10-19T05:15:31.065Z,100675.27
2022-10-19T05:18:29.455Z,100676.49
2022-10-19T05:21:31.519Z,100678.58
2022-10-19T05:24:24.002Z,100680.38
2022-10-19T05:27:32.313Z,100679.32
2022-10-19T05:30:28.401Z,100685.62
2022-10-19T05:33:14.268Z,100683.67
2022-10-19T05:35:52.860Z,100689.56
2022-10-19T05:38:39.131Z,100688.14
2022-10-19T05:41:24.887Z,100685.88
2022-10-19T05:44:27.498Z,100685.00
2022-10-19T05:47:19.149Z,100690.25
2022-10-19T05:49:55.666Z,100687.19
2022-10-19T05:52:36.127Z,100683.42
2022-10-19T05:55:24.740Z,100690.72
2022-10-19T05:58:33.947Z,100687.86
2022-10-19T06:01:43.479Z,100688.38
2022-10-19T06:04:28.158Z,100688.98
2022-10-19T06:07:15.066Z,100693.52
2022-10-19T06:10:04.296Z,100689.59
2022-10-19T06:12:54.415Z,100685.29
2022-10-19T06:15:50.487Z,100685.66
2022-10-19T06:18:51.225Z,100686.08
2022-10-19T06:21:28.547Z,100685.67
2022-10-19T06:24:30.176Z,100686.14
2022-10-19T06:27:41.282Z,100689.79
2022-10-19T06:30:28.221Z,100685.26
2022-10-19T06:33:15.804Z,100681.04
2022-10-19T06:36:19.546Z,100683.29
2022-10-19T06:39:24.159Z,100687.11
2022-10-19T06:42:01.071Z,100692.25
2022-10-19T06:45:03.191Z,100697.82
2022-10-19T06:47:44.618Z,100704.98
2022-10-19T06:50:32.857Z,100704.31
2022-10-19T06:53:09.800Z,100701.02
2022-10-19T06:55:50.132Z,100694.06
2022-10-19T06:58:48.694Z,100689.17
2022-10-19T07:01:26.944Z,100683.77
2022-10-19T07:04:07.894Z,100683.84
2022-10-19T07:06:40.911Z,100683.70
2022-10-19T07:09:13.598Z,100689.52
2022-10-19T07:11:55.224Z,100692.37
2022-10-19T07:20:34.408Z,100693.92
2022-10-19T07:23:35.240Z,100694.84
2022-10-19T07:26:34.175Z,100695.33
2022-10-19T07:29:49.606Z,100695.62
2022-10-19T07:32:57.399Z,100695.24
2022-10-19T07:36:08.982Z,100693.50
2022-10-19T07:39:37.383Z,100693.61
2022-10-19T07:42:41.544Z,100693.64
2022-10-19T07:45:15.196Z,100691.77
2022-10-19T07:50:58.924Z,100692.59
2022-10-19T07:53:44.660Z,100696.79
2022-10-19T07:56:26.468Z,100701.86
2022-10-19T07:59:10.661Z,100701.75
2022-10-19T08:02:05.524Z,100695.44
2022-10-19T08:05:01.203Z,100701.16
2022-10-19T08:07:54.005Z,100707.33
2022-10-19T08:10:23.728Z,100708.46
2022-10-19T08:13:06.541Z,100700.40
2022-10-19T08:15:51.964Z,100705.39
2022-10-19T08:18:33.665Z,100702.25
2022-10-19T08:21:28.698Z,100699.69
2022-10-19T08:24:07.930Z,100694.39
2022-10-19T08:27:13.140Z,100698.64
2022-10-19T08:30:12.971Z,100699.06
2022-10-19T08:33:11.880Z,100698.17
2022-10-19T08:35:57.352Z,100702.67
2022-10-19T08:39:09.310Z,100705.55
2022-10-19T08:42:05.667Z,100702.13
2022-10-19T08:44:59.729Z,100697.97
2022-10-19T08:47:38.754Z,100697.17
2022-10-19T08:50:26.159Z,100697.70
2022-10-19T08:53:45.085Z,100694.31
2022-10-19T08:56:51.044Z,100693.77
2022-10-19T08:59:46.190Z,100694.13
2022-10-19T09:02:51.960Z,100699.73
2022-10-19T09:06:22.552Z,100702.41
2022-10-19T09:09:42.251Z,100705.02
2022-10-19T09:12:46.648Z,100708.33
2022-10-19T09:15:24.788Z,100710.52
2022-10-19T09:18:10.108Z,100707.56
2022-10-19T09:21:04.039Z,100711.91
2022-10-19T09:23:59.173Z,100712.88
2022-10-19T09:26:45.701Z,100719.23
2022-10-19T09:29:44.413Z,100715.37
2022-10-19T09:32:25.541Z,100711.58
2022-10-19T09:35:59.137Z,100718.37
2022-10-19T09:38:40.793Z,100721.70
2022-10-19T09:41:35.541Z,100724.58
2022-10-19T09:44:15.048Z,100723.53
2022-10-19T09:47:13.740Z,100726.47
2022-10-19T09:50:13.844Z,100732.03
2022-10-19T09:53:12.614Z,100731.45
2022-10-19T09:56:45.009Z,100731.13
2022-10-19T09:59:36.176Z,100732.11
2022-10-19T10:02:41.561Z,100736.89
2022-10-19T10:09:08.891Z,100733.18
2022-10-19T10:12:19.094Z,100731.70
2022-10-19T10:14:58.654Z,100738.62
2022-10-19T10:17:53.495Z,100736.27
2022-10-19T10:20:44.428Z,100752.77
2022-10-19T10:23:31.515Z,100766.60
2022-10-19T10:26:38.186Z,100769.41
2022-10-19T10:29:36.151Z,100771.00
2022-10-19T10:32:12.091Z,100773.05
2022-10-19T10:35:24.781Z,100779.48
2022-10-19T10:38:17.263Z,100775.59
2022-10-19T10:41:26.063Z,100776.11
2022-10-19T10:44:25.981Z,100772.33
2022-10-19T10:47:03.030Z,100776.86
2022-10-19T10:49:43.987Z,100771.86
2022-10-19T10:52:23.208Z,100772.12
2022-10-19T10:55:32.324Z,100770.52
2022-10-19T10:58:44.253Z,100771.79
2022-10-19T11:01:38.409Z,100770.16
2022-10-19T11:04:59.855Z,100769.16
2022-10-19T11:07:49.627Z,100767.29
2022-10-19T11:10:52.004Z,100765.98
2022-10-19T11:14:17.194Z,100766.19
2022-10-19T11:17:07.019Z,100771.78
2022-10-19T11:19:53.811Z,100772.20
2022-10-19T11:23:03.930Z,100770.37
2022-10-19T11:25:55.250Z,100772.61
2022-10-19T11:28:59.848Z,100769.85
2022-10-19T11:31:58.974Z,100765.63
2022-10-19T11:34:57.929Z,100768.76
2022-10-19T11:38:18.872Z,100762.65
2022-10-19T11:42:08.811Z,100770.76
2022-10-19T11:45:25.156Z,100770.57
2022-10-19T11:48:54.741Z,100770.92
2022-10-19T11:51:43.857Z,100771.57
2022-10-19T11:54:25.903Z,100763.56
2022-10-19T11:57:55.247Z,100765.40
2022-10-19T12:01:22.574Z,100762.25
2022-10-19T12:04:19.811Z,100765.52
2022-10-19T12:07:26.992Z,100767.42
2022-10-19T12:10:18.960Z,100769.48
2022-10-19T12:13:16.002Z,100769.95
2022-10-19T12:16:06.253Z,100768.52
2022-10-19T12:19:05.242Z,100773.48
2022-10-19T12:21:49.469Z,100775.34
2022-10-19T12:24:36.651Z,100776.64
2022-10-19T12:27:26.324Z,100776.56
2022-10-19T12:30:07.663Z,100781.09
2022-10-19T12:32:57.484Z,100785.38
2022-10-19T12:36:07.227Z,100782.63
2022-10-19T12:39:00.600Z,100785.84
2022-10-19T12:42:09.025Z,100786.06
2022-10-19T12:45:06.685Z,100787.24
2022-10-19T12:48:02.057Z,100785.83
2022-10-19T12:50:59.258Z,100786.24
2022-10-19T12:53:53.468Z,100787.02
2022-10-19T12:56:34.140Z,100784.84
2022-10-19T12:59:35.396Z,100789.52
2022-10-19T13:02:54.367Z,100796.56
2022-10-19T13:06:02.036Z,100793.18
2022-10-19T13:09:23.657Z,100791.27
2022-10-19T13:12:41.574Z,100793.48
2022-10-19T13:15:54.824Z,100793.01
2022-10-19T13:19:07.216Z,100790.43
2022-10-19T13:22:01.094Z,100786.48
2022-10-19T13:25:22.733Z,100790.08
2022-10-19T13:28:31.318Z,100789.53
2022-10-19T13:31:56.140Z,100795.17
2022-10-19T13:35:05.589Z,100802.80
2022-10-19T13:38:03.305Z,100802.39
2022-10-19T13:41:21.690Z,100811.38
2022-10-19T13:44:36.880Z,100811.98
2022-10-19T13:50:51.191Z,100815.99
2022-10-19T13:54:13.903Z,100818.95
2022-10-19T13:57:33.356Z,100818.14
2022-10-19T14:00:35.630Z,100829.25
2022-10-19T14:03:53.436Z,100829.25
2022-10-19T14:06:45.957Z,100835.88
2022-10-19T14:09:50.829Z,100840.23
2022-10-19T14:12:50.403Z,100837.20
2022-10-19T14:15:40.565Z,100838.94
2022-10-19T14:18:39.356Z,100846.27
2022-10-19T14:22:13.630Z,100852.26
2022-10-19T14:25:04.421Z,100856.27
2022-10-19T14:27:52.098Z,100865.86
2022-10-19T14:31:00.299Z,100873.52
2022-10-19T14:33:36.339Z,100893.02
2022-10-19T14:36:08.086Z,100900.20
2022-10-19T14:39:10.162Z,100896.80
2022-10-19T14:41:50.511Z,100900.53
2022-10-19T14:44:40.844Z,100894.09
2022-10-19T14:47:33.917Z,100893.71
2022-10-19T14:50:33.600Z,100893.59
2022-10-19T14:53:25.418Z,100902.06
2022-10-19T14:56:28.485Z,100907.63
2022-10-19T14:59:50.113Z,100904.01
2022-10-19T15:02:49.150Z,100912.28
2022-10-19T15:05:58.945Z,100918.31
2022-10-19T15:08:50.281Z,100923.23
2022-10-19T15:11:51.447Z,100921.25
2022-10-19T15:14:40.725Z,100926.83
2022-10-19T15:17:37.021Z,100927.06
2022-10-19T15:21:11.649Z,100927.95
2022-10-19T15:23:59.241Z,100931.58
2022-10-19T15:27:20.737Z,100930.55
2022-10-19T15:33:29.627Z,100939.20
2022-10-19T15:36:33.078Z,100949.81
2022-10-19T15:39:37.069Z,100953.73
2022-10-19T15:42:51.061Z,100955.10
2022-10-19T15:45:44.011Z,100954.38
2022-10-19T15:48:24.171Z,100961.70
2022-10-19T15:51:04.881Z,100969.69
2022-10-19T15:53:47.105Z,100973.64
2022-10-19T15:56:17.431Z,100979.08
2022-10-19T15:58:52.682Z,100982.64
2022-10-19T16:01:56.191Z,100980.84
2022-10-19T16:04:46.951Z,100987.58
2022-10-19T16:07:34.363Z,100992.84
2022-10-19T16:23:25.520Z,101007.42
2022-10-19T16:26:05.600Z,101018.77
2022-10-19T16:28:49.398Z,101023.82
2022-10-19T16:31:25.294Z,101026.95
2022-10-19T16:34:06.679Z,101028.79
2022-10-19T16:36:45.796Z,101028.66
2022-10-19T16:39:34.374Z,101029.98
2022-10-19T16:42:25.700Z,101033.76
2022-10-19T16:45:29.705Z,101034.85
2022-10-19T16:48:24.063Z,101037.36
2022-10-19T16:51:36.458Z,101047.05
2022-10-19T16:54:20.306Z,101048.58
2022-10-19T16:57:14.737Z,101047.80
2022-10-19T17:00:10.644Z,101055.61
2022-10-19T17:02:50.492Z,101056.31
2022-10-19T17:05:48.521Z,101063.56
2022-10-19T17:09:20.173Z,101069.55
2022-10-19T17:11:54.526Z,101076.77
2022-10-19T17:15:29.901Z,101080.98
2022-10-19T17:18:03.704Z,101083.29
2022-10-19T17:21:04.303Z,101082.70
2022-10-19T17:23:52.899Z,101084.48
2022-10-19T17:26:42.879Z,101092.05
2022-10-19T17:29:37.965Z,101095.18
2022-10-19T17:32:56.695Z,101095.41
2022-10-19T17:35:42.529Z,101099.35
2022-10-19T17:38:36.078Z,101106.10
2022-10-19T17:41:34.076Z,101107.73
2022-10-19T17:44:18.560Z,101114.42
2022-10-19T17:47:34.311Z,101112.04
2022-10-19T17:50:32.875Z,101114.79
2022-10-19T17:53:44.114Z,101120.80
2022-10-19T17:56:37.608Z,101123.58
2022-10-19T17:59:46.750Z,101121.73
2022-10-19T18:02:35.342Z,101130.45
2022-10-19T18:05:19.335Z,101129.65
2022-10-19T18:08:08.222Z,101130.60
2022-10-19T18:14:09.116Z,101133.08
2022-10-19T18:16:57.638Z,101137.35
2022-10-19T18:19:30.356Z,101139.10
2022-10-19T18:22:02.237Z,101139.97
2022-10-19T18:24:34.364Z,101139.86
2022-10-19T18:27:08.872Z,101142.95
2022-10-19T18:29:40.107Z,101139.81
2022-10-19T18:32:13.433Z,101135.93
2022-10-19T18:34:46.325Z,101133.84
2022-10-19T18:37:16.116Z,101133.78
2022-10-19T18:39:52.250Z,101131.23
2022-10-19T18:42:31.960Z,101131.40
2022-10-19T18:45:12.506Z,101137.66
2022-10-19T18:47:53.173Z,101142.50
2022-10-19T18:50:25.786Z,101149.87
2022-10-19T18:53:19.470Z,101151.38
2022-10-19T18:56:20.238Z,101153.22
2022-10-19T18:58:56.386Z,101155.45
2022-10-19T19:01:49.942Z,101159.55
2022-10-19T19:04:22.869Z,101166.95
2022-10-19T19:07:08.178Z,101166.86
2022-10-19T19:12:39.290Z,101166.34
2022-10-19T19:15:29.657Z,101167.73
2022-10-19T19:18:22.122Z,101166.63
2022-10-19T19:20:57.945Z,101169.40
2022-10-19T19:23:31.086Z,101172.76
2022-10-19T19:26:08.553Z,101180.97
2022-10-19T19:28:51.728Z,101186.67
2022-10-19T19:32:01.869Z,101186.49
2022-10-19T19:37:34.368Z,101202.98
2022-10-19T19:40:32.742Z,101209.75
2022-10-19T19:43:16.647Z,101213.59
2022-10-19T19:46:34.291Z,101216.09
2022-10-19T19:49:05.486Z,101219.70
2022-10-19T19:51:40.453Z,101220.90
2022-10-19T19:54:15.806Z,101226.00
2022-10-19T19:56:51.736Z,101225.67
2022-10-19T19:59:28.737Z,101228.52
2022-10-19T20:01:58.844Z,101234.98
2022-10-19T20:04:38.934Z,101234.91
2022-10-19T20:07:27.658Z,101234.17
2022-10-19T20:09:58.221Z,101239.98
2022-10-19T20:12:54.672Z,101248.34
2022-10-19T20:15:28.995Z,101252.90
2022-10-19T20:18:07.718Z,101257.79
2022-10-19T20:20:41.772Z,101260.68
2022-10-19T20:23:11.363Z,101260.37
2022-10-19T20:25:43.241Z,101261.66
2022-10-19T20:28:12.813Z,101261.87
2022-10-19T20:30:58.703Z,101264.35
2022-10-19T20:33:57.901Z,101266.69
2022-10-19T20:39:35.703Z,101277.23
2022-10-19T20:42:18.490Z,101281.12
2022-10-19T20:45:10.406Z,101283.67
2022-10-19T20:47:58.531Z,101285.90
2022-10-19T20:50:30.574Z,101283.80
2022-10-19T20:53:02.891Z,101282.54
2022-10-19T20:55:34.182Z,101278.73
2022-10-19T20:58:22.166Z,101282.84
2022-10-19T21:01:09.006Z,101284.77
2022-10-19T21:03:39.863Z,101285.38
2022-10-19T21:06:19.558Z,101285.08
2022-10-19T21:08:54.102Z,101286.23
2022-10-19T21:11:27.498Z,101286.38
2022-10-19T21:14:05.387Z,101284.42
2022-10-19T21:16:39.249Z,101291.29
2022-10-19T21:19:13.966Z,101293.88
2022-10-19T21:21:49.635Z,101296.85
2022-10-19T21:24:26.037Z,101301.77
2022-10-19T21:26:56.097Z,101304.40
2022-10-19T21:29:28.086Z,101309.23
2022-10-19T21:32:03.240Z,101306.59
2022-10-19T21:34:35.639Z,101308.06
2022-10-19T21:37:05.647Z,101308.02
2022-10-19T21:39:48.248Z,101309.48
2022-10-19T21:42:17.966Z,101304.14
2022-10-19T21:44:54.056Z,101304.30
2022-10-19T21:47:36.937Z,101299.45
2022-10-19T21:50:11.074Z,101301.58
2022-10-19T21:52:41.559Z,101302.61
2022-10-19T21:55:11.116Z,101298.65
2022-10-19T21:57:43.410Z,101300.96
2022-10-19T22:00:13.672Z,101298.02
2022-10-19T22:02:49.817Z,101297.70
2022-10-19T22:05:19.340Z,101299.05
2022-10-19T22:07:49.375Z,101295.38
2022-10-19T22:10:46.962Z,101299.41
2022-10-19T22:13:22.482Z,101305.15
2022-10-19T22:16:12.585Z,101307.67
2022-10-19T22:18:44.824Z,101310.98
2022-10-19T22:21:21.118Z,101312.56
2022-10-19T22:23:55.850Z,101311.55
2022-10-19T22:26:31.881Z,101311.48
2022-10-19T22:29:04.285Z,101315.89
2022-10-19T22:31:44.399Z,101315.20
2022-10-19T22:34:18.546Z,101318.56
2022-10-19T22:37:05.824Z,101317.02
2022-10-19T22:39:35.408Z,101319.94
2022-10-19T22:42:09.730Z,101324.98
2022-10-19T22:44:39.474Z,101330.05
2022-10-19T22:47:12.083Z,101330.73
2022-10-19T22:49:46.395Z,101334.92
2022-10-19T22:52:17.099Z,101339.06
2022-10-19T22:54:45.760Z,101341.55
2022-10-19T22:57:15.072Z,101337.49
2022-10-19T22:59:44.691Z,101338.99
2022-10-19T23:02:13.961Z,101340.89
2022-10-19T23:04:45.973Z,101339.17
2022-10-19T23:07:14.989Z,101340.17
2022-10-19T23:09:44.372Z,101340.63
2022-10-19T23:12:16.586Z,101344.73
2022-10-19T23:14:45.983Z,101343.60
2022-10-19T23:17:18.173Z,101349.31
2022-10-19T23:19:48.167Z,101351.22
2022-10-19T23:22:17.232Z,101354.48
2022-10-19T23:24:48.542Z,101356.23
2022-10-19T23:27:20.458Z,101361.91
2022-10-19T23:29:49.799Z,101365.38
2022-10-19T23:32:19.772Z,101366.08
2022-10-19T23:34:51.154Z,101370.40
2022-10-19T23:37:20.664Z,101374.23
2022-10-19T23:39:49.792Z,101368.95
2022-10-19T23:42:19.310Z,101376.45
2022-10-19T23:44:48.543Z,101377.54
2022-10-19T23:47:27.978Z,101383.20
2022-10-19T23:49:58.349Z,101389.37
2022-10-19T23:52:28.606Z,101393.50
2022-10-19T23:55:13.498Z,101394.63
2022-10-19T23:57:48.899Z,101399.66
